Anita, Iowa
Current Conditions -  °F | °C
As of 3:55 PM on Tuesday 25 Nov 2014 (Local Time) from KAIO Reporting Station
Clear Clear  
Wind Chill: 30°   Ceiling: Unl
Heat Index: 36°   Visibility: 10mi
Dew Point: 19°   Wind: 7mph
Humidity: 52%   Direction: 180°S
Pressure: 30.01"   Gusts: NA
Location:  41.45°N, 94.76°W
Report Text: KAIO 252155Z AUTO 18006KT 10SM CLR 02/M07 A3001 RMK AO2
Loading
Personal Weather Stations






























Interactive Weather Map New forecast layout! Learn more

10-Day Weather Forecast

Advertisements
Track Severe Weather on mobile